Time;durP1;ratioP1;P1;durP2;ratioP2;P2;SDS_P1;SDS_P2;PMS_P1;PMS_P2;Temp;Humidity;BMP_temperature;BMP_pressure;BME280_temperature;BME280_humidity;BME280_pressure;Samples;Min_cycle;Max_cycle;Signal;HPM_P1;HPM_P2
2022/06/08 00:00:42;;;;;;;35.67;30.35;;;;;;;17.20;73.24;101002.41;5089004;28;20059;-64
2022/06/08 00:03:11;;;;;;;34.03;29.10;;;;;;;17.20;73.01;101006.06;5108278;28;20048;-65
2022/06/08 00:05:37;;;;;;;33.72;29.17;;;;;;;17.21;72.80;100998.47;5107461;28;20031;-64
2022/06/08 00:08:03;;;;;;;34.00;28.75;;;;;;;17.17;72.56;100987.88;5107438;28;20024;-64
2022/06/08 00:10:29;;;;;;;36.58;28.50;;;;;;;17.18;72.70;100995.16;5100502;28;20136;-64
2022/06/08 00:12:54;;;;;;;33.20;29.70;;;;;;;17.13;72.26;100992.41;5098781;28;20527;-64
2022/06/08 00:15:20;;;;;;;31.60;28.17;;;;;;;17.12;72.47;100987.06;5091727;28;20027;-64
2022/06/08 00:17:45;;;;;;;33.58;29.05;;;;;;;17.13;72.54;100985.91;5091663;28;20055;-64
2022/06/08 00:20:14;;;;;;;31.17;27.58;;;;;;;17.13;72.24;100981.19;5105455;28;20019;-64
2022/06/08 00:22:39;;;;;;;34.33;30.63;;;;;;;17.06;73.07;100977.88;5095036;28;20102;-64
2022/06/08 00:25:09;;;;;;;34.55;30.90;;;;;;;17.11;72.98;100980.63;5085887;28;20467;-65
2022/06/08 00:27:37;;;;;;;36.22;32.15;;;;;;;17.01;73.33;100969.47;5108027;28;20031;-65
2022/06/08 00:30:04;;;;;;;35.20;31.45;;;;;;;17.06;73.42;100972.25;5101150;28;20416;-64
2022/06/08 00:32:30;;;;;;;38.10;31.77;;;;;;;17.08;73.42;100969.16;5101197;28;20028;-65
2022/06/08 00:35:00;;;;;;;34.95;31.20;;;;;;;17.02;73.67;100970.34;5098722;28;20167;-65
2022/06/08 00:37:32;;;;;;;35.47;31.77;;;;;;;17.04;73.43;100968.91;5106474;28;20034;-65
2022/06/08 00:39:57;;;;;;;35.60;31.70;;;;;;;17.01;73.05;100966.66;5107181;28;20024;-65
2022/06/08 00:42:23;;;;;;;35.78;31.98;;;;;;;17.00;72.99;100955.75;5102658;28;20079;-65
2022/06/08 00:44:56;;;;;;;35.05;30.85;;;;;;;16.99;73.26;100959.69;5107664;28;20027;-65
2022/06/08 00:47:27;;;;;;;34.72;30.48;;;;;;;16.95;73.45;100958.63;5102511;28;20042;-65
2022/06/08 00:49:59;;;;;;;34.47;30.17;;;;;;;16.96;73.00;100946.25;5078336;28;20019;-64
2022/06/08 00:52:26;;;;;;;35.42;30.42;;;;;;;16.95;72.68;100953.00;5101405;28;20077;-64
2022/06/08 00:54:57;;;;;;;35.58;31.30;;;;;;;16.96;72.82;100954.69;5099868;28;20107;-63
2022/06/08 00:57:49;;;;;;;32.55;29.02;;;;;;;16.95;72.56;100948.25;5100943;28;20789;-65
2022/06/08 01:00:21;;;;;;;32.63;28.98;;;;;;;16.95;72.30;100947.41;5090928;28;20039;-65
2022/06/08 01:02:50;;;;;;;;;;;;;;;17.13;71.29;100943.84;5099244;28;20048;-65
2022/06/08 01:05:28;;;;;;;33.13;29.58;;;;;;;16.93;72.26;100939.25;5107163;28;19924;-65
2022/06/08 01:07:59;;;;;;;33.75;29.98;;;;;;;16.84;72.42;100941.88;5078024;28;20024;-65
2022/06/08 01:10:29;;;;;;;34.42;29.48;;;;;;;16.81;72.29;100936.00;5107045;28;20024;-65
2022/06/08 01:12:57;;;;;;;32.15;28.45;;;;;;;16.83;72.20;100926.19;5106959;28;20030;-65
2022/06/08 01:15:27;;;;;;;33.65;29.92;;;;;;;16.78;72.39;100925.38;5091280;28;20024;-67
2022/06/08 01:17:53;;;;;;;33.45;29.83;;;;;;;16.78;72.17;100926.25;5095866;28;20034;-65
2022/06/08 01:20:18;;;;;;;31.90;28.52;;;;;;;16.74;72.24;100913.06;5102106;28;20378;-65
2022/06/08 01:22:47;;;;;;;30.13;26.80;;;;;;;16.74;72.03;100907.47;5095527;28;20033;-65
2022/06/08 01:25:15;;;;;;;31.45;27.40;;;;;;;16.70;71.91;100904.38;5096840;28;20092;-65
2022/06/08 01:27:50;;;;;;;32.10;28.60;;;;;;;16.71;71.93;100908.06;5108937;28;20055;-65
2022/06/08 01:30:25;;;;;;;34.63;29.08;;;;;;;16.66;71.92;100904.16;5088630;28;20065;-65
2022/06/08 01:32:56;;;;;;;32.53;28.55;;;;;;;16.71;72.02;100902.44;5103801;28;20015;-65
2022/06/08 01:35:29;;;;;;;33.58;29.02;;;;;;;16.63;71.98;100901.94;5097959;28;20032;-65
2022/06/08 01:38:17;;;;;;;33.85;29.17;;;;;;;16.67;71.89;100896.59;5091121;28;20133;-65
2022/06/08 01:41:10;;;;;;;31.95;28.23;;;;;;;16.61;72.01;100895.78;5100961;28;20124;-65
2022/06/08 01:43:45;;;;;;;34.22;27.63;;;;;;;16.64;71.80;100889.59;5103905;28;20036;-65
2022/06/08 01:46:21;;;;;;;32.00;27.90;;;;;;;16.62;72.04;100888.19;5097372;28;20427;-65
2022/06/08 01:49:10;;;;;;;32.40;28.77;;;;;;;16.62;71.94;100888.19;5102314;28;20057;-65
2022/06/08 01:52:06;;;;;;;32.38;27.65;;;;;;;16.64;71.82;100880.34;5079119;28;20474;-65
2022/06/08 01:54:37;;;;;;;32.03;27.38;;;;;;;16.56;71.94;100879.00;5095907;28;20024;-65
2022/06/08 01:57:18;;;;;;;28.98;24.50;;;;;;;16.59;71.89;100861.63;5092924;28;20036;-65
2022/06/08 02:00:10;;;;;;;28.02;24.38;;;;;;;16.54;71.83;100863.59;5090306;28;20042;-65
2022/06/08 02:02:47;;;;;;;27.75;24.38;;;;;;;16.53;72.17;100868.38;5100720;28;20048;-65
2022/06/08 02:05:37;;;;;;;25.73;22.92;;;;;;;16.49;72.20;100864.50;5082024;28;20032;-66
2022/06/08 02:08:19;;;;;;;25.17;22.48;;;;;;;16.56;71.97;100855.75;5099227;28;20031;-65
2022/06/08 02:10:55;;;;;;;25.00;21.88;;;;;;;16.49;72.14;100850.47;5103347;28;20121;-65
2022/06/08 02:13:35;;;;;;;23.75;21.25;;;;;;;16.50;71.96;100843.75;5102336;28;20052;-64
2022/06/08 02:16:16;;;;;;;24.10;21.10;;;;;;;16.50;71.90;100840.94;5093833;28;20061;-64
2022/06/08 02:18:46;;;;;;;23.38;20.35;;;;;;;16.45;72.07;100835.38;5103756;28;20471;-65
2022/06/08 02:21:20;;;;;;;23.45;19.73;;;;;;;16.44;72.12;100833.72;5097836;28;20039;-64
2022/06/08 02:23:54;;;;;;;25.05;20.17;;;;;;;16.39;72.20;100829.00;5088714;28;20032;-65
2022/06/08 02:26:41;;;;;;;21.77;18.65;;;;;;;16.47;72.00;100821.94;5097888;28;20062;-65
2022/06/08 02:29:12;;;;;;;21.13;18.92;;;;;;;16.40;72.08;100815.84;5102829;28;20398;-65
2022/06/08 02:31:47;;;;;;;21.45;19.15;;;;;;;16.39;72.14;100812.19;5108685;28;20243;-65
2022/06/08 02:34:28;;;;;;;23.35;17.55;;;;;;;16.37;71.96;100817.25;5098500;28;20027;-65
2022/06/08 02:37:19;;;;;;;21.85;18.13;;;;;;;16.45;71.78;100813.81;5100716;28;20618;-65
2022/06/08 02:39:55;;;;;;;21.13;17.90;;;;;;;16.37;71.89;100808.84;5109098;28;20063;-65
2022/06/08 02:42:38;;;;;;;19.52;16.67;;;;;;;16.38;71.67;100812.47;5101535;28;20032;-65
2022/06/08 02:45:11;;;;;;;18.25;16.30;;;;;;;16.32;71.77;100811.69;5101829;27;20111;-63
2022/06/08 02:47:43;;;;;;;18.70;16.70;;;;;;;16.28;71.97;100802.19;5093975;28;20312;-64
2022/06/08 02:50:14;;;;;;;20.52;16.13;;;;;;;16.30;71.68;100801.91;5090264;28;20043;-65
2022/06/08 02:52:43;;;;;;;17.15;15.32;;;;;;;16.23;71.78;100799.44;5100742;28;20667;-65
2022/06/08 02:55:19;;;;;;;20.30;16.40;;;;;;;16.29;72.02;100795.47;5087604;28;20031;-65
2022/06/08 02:58:00;;;;;;;17.65;15.75;;;;;;;16.25;71.48;100799.97;5091936;28;20063;-65
2022/06/08 03:00:40;;;;;;;18.95;15.65;;;;;;;16.23;72.18;100793.00;5097577;28;20028;-65
2022/06/08 03:03:12;;;;;;;17.17;15.40;;;;;;;16.19;72.18;100789.94;5095713;28;20040;-65
2022/06/08 03:05:42;;;;;;;17.23;15.38;;;;;;;16.22;71.60;100794.13;5094942;28;20047;-65
2022/06/08 03:08:20;;;;;;;18.05;15.65;;;;;;;16.21;71.72;100787.69;5097130;28;20092;-65
2022/06/08 03:10:47;;;;;;;18.17;14.82;;;;;;;16.12;71.66;100781.88;5105583;28;20020;-65
2022/06/08 03:13:30;;;;;;;16.58;14.18;;;;;;;16.20;71.40;100780.44;5098231;28;20455;-65
2022/06/08 03:15:57;;;;;;;;;;;;;;;16.36;70.84;100786.72;5078292;28;20025;-65
2022/06/08 03:18:23;;;;;;;15.68;13.27;;;;;;;16.08;72.18;100780.81;5088948;28;20034;-65
2022/06/08 03:20:53;;;;;;;16.67;13.82;;;;;;;16.09;72.40;100778.84;5099019;28;20032;-65
2022/06/08 03:23:19;;;;;;;15.93;13.65;;;;;;;16.07;72.35;100781.06;5099500;28;20035;-65
2022/06/08 03:25:45;;;;;;;14.93;13.43;;;;;;;16.01;72.31;100776.66;5094773;28;20031;-65
2022/06/08 03:28:13;;;;;;;14.70;13.18;;;;;;;16.06;72.62;100785.00;5088297;28;20397;-65
2022/06/08 03:30:38;;;;;;;16.25;13.05;;;;;;;16.03;72.86;100779.97;5102386;28;20162;-65
2022/06/08 03:33:03;;;;;;;15.80;11.68;;;;;;;16.00;72.85;100781.44;5106473;28;20452;-65
2022/06/08 03:35:29;;;;;;;14.93;12.73;;;;;;;16.02;72.81;100783.91;5092221;28;20032;-65
2022/06/08 03:37:54;;;;;;;13.15;11.75;;;;;;;16.04;72.72;100781.69;5080586;28;20422;-65
2022/06/08 03:40:22;;;;;;;13.35;11.73;;;;;;;16.00;72.91;100781.44;5105712;28;20019;-65
2022/06/08 03:42:47;;;;;;;13.73;11.35;;;;;;;16.03;73.16;100785.59;5104475;28;20099;-65
2022/06/08 03:45:13;;;;;;;14.65;10.98;;;;;;;16.07;73.08;100786.69;5113588;28;20023;-65
2022/06/08 03:47:43;;;;;;;12.10;10.52;;;;;;;16.06;73.39;100787.81;5096202;28;20471;-65
2022/06/08 03:50:12;;;;;;;11.85;10.02;;;;;;;16.02;73.53;100787.56;5104163;28;20024;-65
2022/06/08 03:52:42;;;;;;;11.93;10.52;;;;;;;16.04;73.65;100788.13;5088776;28;20026;-65
2022/06/08 03:55:08;;;;;;;12.20;10.63;;;;;;;16.07;73.57;100787.53;5105226;28;20095;-63
2022/06/08 03:57:34;;;;;;;10.25;9.05;;;;;;;16.09;73.72;100790.03;5110534;28;20105;-64
2022/06/08 04:00:00;;;;;;;10.50;9.50;;;;;;;16.13;73.57;100791.13;5103119;28;20031;-64
2022/06/08 04:02:27;;;;;;;10.52;8.75;;;;;;;16.11;73.69;100784.97;5108465;28;20055;-65
2022/06/08 04:04:52;;;;;;;10.57;9.10;;;;;;;16.15;73.87;100786.06;5097371;28;20036;-64
2022/06/08 04:07:18;;;;;;;11.90;9.85;;;;;;;16.10;73.85;100784.13;5110676;28;20020;-64
2022/06/08 04:09:43;;;;;;;11.13;8.82;;;;;;;16.13;73.91;100775.16;5078942;28;20045;-64
2022/06/08 04:12:12;;;;;;;10.00;8.82;;;;;;;16.16;74.03;100779.34;5105869;28;20040;-64
2022/06/08 04:14:40;;;;;;;9.27;8.30;;;;;;;16.14;74.57;100778.78;5102416;28;20038;-65
2022/06/08 04:17:07;;;;;;;9.63;8.68;;;;;;;16.17;74.29;100775.41;5110438;28;20106;-64
2022/06/08 04:19:35;;;;;;;11.10;8.80;;;;;;;16.16;74.04;100768.13;5092873;28;20035;-64
2022/06/08 04:22:01;;;;;;;11.85;9.05;;;;;;;16.15;74.02;100763.66;5095272;28;20020;-65
2022/06/08 04:24:26;;;;;;;10.13;8.13;;;;;;;16.17;74.12;100759.44;5091602;28;20036;-64
2022/06/08 04:26:52;;;;;;;11.88;7.97;;;;;;;16.22;73.92;100757.72;5090298;28;20062;-64
2022/06/08 04:29:18;;;;;;;9.43;7.55;;;;;;;16.18;74.03;100754.66;5084257;28;20040;-65
2022/06/08 04:31:43;;;;;;;10.10;7.35;;;;;;;16.20;73.96;100763.63;5094234;28;20126;-65
2022/06/08 04:34:10;;;;;;;8.27;7.47;;;;;;;16.23;73.90;100763.03;5096508;28;20122;-64
2022/06/08 04:36:36;;;;;;;10.45;7.68;;;;;;;16.20;74.27;100758.03;5102641;28;20036;-64
2022/06/08 04:39:10;;;;;;;11.30;7.45;;;;;;;16.16;74.25;100757.78;5097836;28;20028;-64
2022/06/08 04:41:36;;;;;;;10.68;7.25;;;;;;;16.19;74.41;100759.13;5087129;28;20082;-64
2022/06/08 04:44:02;;;;;;;9.68;7.25;;;;;;;16.19;74.33;100753.53;5098647;28;20092;-64
2022/06/08 04:46:28;;;;;;;9.05;7.18;;;;;;;16.26;74.27;100756.00;5100174;28;20469;-64
2022/06/08 04:48:53;;;;;;;8.10;6.57;;;;;;;16.27;74.13;100744.53;5100027;28;20093;-64
2022/06/08 04:51:19;;;;;;;8.50;7.35;;;;;;;16.24;74.35;100733.91;5095815;28;20439;-64
2022/06/08 04:53:47;;;;;;;7.72;6.88;;;;;;;16.30;74.48;100735.50;5107712;28;20484;-64
2022/06/08 04:56:13;;;;;;;8.32;7.32;;;;;;;16.32;74.04;100732.44;5093824;28;20081;-64
2022/06/08 04:58:38;;;;;;;10.70;8.15;;;;;;;16.32;74.69;100733.25;5102280;28;20360;-64
2022/06/08 05:01:04;;;;;;;8.32;6.93;;;;;;;16.33;74.33;100731.28;5091377;28;20035;-64
2022/06/08 05:03:30;;;;;;;8.15;7.10;;;;;;;16.33;74.26;100729.31;5096633;28;20096;-64
2022/06/08 05:05:57;;;;;;;8.23;6.82;;;;;;;16.32;74.65;100729.63;5107006;28;20535;-64
2022/06/08 05:08:23;;;;;;;6.70;6.10;;;;;;;16.35;73.96;100731.84;5091999;28;20497;-64
2022/06/08 05:10:50;;;;;;;9.05;6.05;;;;;;;16.31;74.03;100737.19;5100621;28;20027;-64
2022/06/08 05:13:17;;;;;;;8.15;6.20;;;;;;;16.31;74.25;100725.13;5097327;28;20073;-65
2022/06/08 05:15:43;;;;;;;8.38;6.18;;;;;;;16.29;74.26;100719.84;5085076;28;20077;-65
2022/06/08 05:18:11;;;;;;;6.90;5.47;;;;;;;16.31;74.18;100716.72;5094595;28;20023;-64
2022/06/08 05:20:39;;;;;;;6.45;5.60;;;;;;;16.28;74.44;100714.56;5097502;28;20038;-64
2022/06/08 05:23:07;;;;;;;7.90;5.80;;;;;;;16.31;74.38;100702.72;5105019;28;20027;-64
2022/06/08 05:25:36;;;;;;;7.20;6.30;;;;;;;16.31;74.55;100703.59;5086489;28;20024;-64
2022/06/08 05:28:03;;;;;;;7.32;5.35;;;;;;;16.34;73.96;100702.16;5090777;28;20105;-64
2022/06/08 05:30:32;;;;;;;7.25;5.25;;;;;;;16.41;74.01;100706.28;5101109;28;20030;-64
2022/06/08 05:32:58;;;;;;;6.00;5.50;;;;;;;16.41;74.00;100700.66;5088635;28;20028;-64
2022/06/08 05:35:24;;;;;;;6.95;5.60;;;;;;;16.37;74.32;100702.41;5095706;28;20042;-64
2022/06/08 05:37:49;;;;;;;7.55;5.63;;;;;;;16.41;73.96;100697.88;5099962;28;20390;-65
2022/06/08 05:40:15;;;;;;;9.20;5.93;;;;;;;16.41;74.02;100692.28;5105279;28;20031;-63
2022/06/08 05:42:40;;;;;;;6.63;5.32;;;;;;;16.36;74.42;100683.94;5100606;28;20454;-63
2022/06/08 05:45:15;;;;;;;8.15;5.93;;;;;;;16.37;74.00;100684.75;5087900;28;20458;-63
2022/06/08 05:47:40;;;;;;;6.50;5.80;;;;;;;16.42;74.02;100679.91;5103452;28;20032;-62
2022/06/08 05:50:06;;;;;;;6.90;5.43;;;;;;;16.42;74.04;100676.28;5098738;28;20030;-64
2022/06/08 05:52:31;;;;;;;6.20;5.38;;;;;;;16.41;74.35;100672.66;5096894;28;20402;-64
2022/06/08 05:55:15;;;;;;;6.18;5.55;;;;;;;16.42;74.55;100676.28;5094261;28;20051;-64
2022/06/08 05:57:41;;;;;;;7.10;5.80;;;;;;;16.48;74.54;100665.88;5086864;28;20025;-63
2022/06/08 06:00:14;;;;;;;6.70;6.07;;;;;;;16.45;74.62;100653.28;5076031;28;20101;-64
2022/06/08 06:02:39;;;;;;;;;;;;;;;16.65;73.05;100658.66;5086344;28;20734;-65
2022/06/08 06:05:05;;;;;;;7.88;5.50;;;;;;;16.56;74.03;100654.03;5105190;28;19920;-65
2022/06/08 06:07:31;;;;;;;6.10;5.03;;;;;;;16.57;73.62;100655.69;5091747;28;20024;-65
2022/06/08 06:10:02;;;;;;;6.65;4.90;;;;;;;16.55;73.59;100652.34;5092103;28;20032;-64
2022/06/08 06:12:28;;;;;;;6.07;4.97;;;;;;;16.58;73.87;100657.34;5106565;28;20084;-64
2022/06/08 06:14:54;;;;;;;8.45;4.90;;;;;;;16.59;73.88;100664.63;5098339;28;20110;-64
2022/06/08 06:17:19;;;;;;;8.80;4.93;;;;;;;16.60;74.13;100660.69;5093585;28;20131;-64
2022/06/08 06:19:44;;;;;;;9.85;5.13;;;;;;;16.58;73.83;100663.78;5107329;28;20539;-64
2022/06/08 06:22:10;;;;;;;6.93;5.00;;;;;;;16.62;73.62;100667.69;5092995;28;20027;-64
2022/06/08 06:24:35;;;;;;;7.95;5.57;;;;;;;16.64;73.80;100668.19;5085997;28;20134;-65
2022/06/08 06:27:04;;;;;;;5.35;4.85;;;;;;;16.62;74.09;100664.03;5086866;28;20024;-65
2022/06/08 06:29:29;;;;;;;9.00;5.13;;;;;;;16.60;74.17;100671.91;5086166;28;20032;-63
2022/06/08 06:31:58;;;;;;;5.97;4.78;;;;;;;16.64;73.90;100668.19;5094660;28;20119;-64
2022/06/08 06:34:26;;;;;;;6.90;5.03;;;;;;;16.64;74.23;100676.59;5094006;28;20032;-64
2022/06/08 06:36:53;;;;;;;5.97;4.97;;;;;;;16.63;74.29;100669.34;5082563;28;20077;-65
2022/06/08 06:39:22;;;;;;;5.05;4.30;;;;;;;16.65;74.19;100660.63;5093728;28;20398;-65
2022/06/08 06:41:48;;;;;;;7.40;5.22;;;;;;;16.56;74.82;100659.63;5088257;28;20453;-64
2022/06/08 06:44:15;;;;;;;6.50;4.88;;;;;;;16.62;74.50;100662.06;5092678;28;20034;-64
2022/06/08 06:46:40;;;;;;;11.18;4.43;;;;;;;16.71;74.27;100653.84;5088746;28;20039;-64
2022/06/08 06:49:08;;;;;;;9.02;5.07;;;;;;;16.77;74.23;100661.06;5080721;28;20106;-65
2022/06/08 06:51:34;;;;;;;8.10;4.93;;;;;;;16.83;73.72;100653.44;5089917;28;20040;-64
2022/06/08 06:54:01;;;;;;;6.28;4.47;;;;;;;16.88;74.19;100653.38;5086811;28;20085;-65
2022/06/08 06:56:26;;;;;;;7.78;4.95;;;;;;;16.97;75.44;100647.91;5089030;28;20394;-65
2022/06/08 06:58:53;;;;;;;6.15;4.80;;;;;;;17.11;74.23;100646.06;5097651;28;20032;-65
2022/06/08 07:01:19;;;;;;;7.55;4.78;;;;;;;17.21;73.78;100642.25;5083219;28;20027;-63
2022/06/08 07:03:44;;;;;;;6.78;4.40;;;;;;;17.30;73.03;100646.91;5109124;28;20156;-64
2022/06/08 07:06:12;;;;;;;7.57;4.10;;;;;;;17.39;73.22;100641.44;5098595;28;20093;-65
2022/06/08 07:08:38;;;;;;;4.95;3.40;;;;;;;17.45;71.47;100643.03;5084110;28;20089;-66
2022/06/08 07:13:49;;;;;;;7.15;3.67;;;;;;;17.58;71.13;100644.22;5091233;28;20100;-65
2022/06/08 07:16:15;;;;;;;6.60;3.45;;;;;;;17.62;71.65;100648.91;5090989;28;20054;-63
2022/06/08 07:18:40;;;;;;;10.10;3.42;;;;;;;17.69;72.26;100642.09;5093547;28;20081;-64
2022/06/08 07:21:06;;;;;;;8.32;3.78;;;;;;;17.72;71.60;100638.66;5069531;28;20545;-65
2022/06/08 07:23:31;;;;;;;6.82;3.40;;;;;;;17.81;71.12;100634.06;5096189;28;20105;-65
2022/06/08 07:25:57;;;;;;;4.45;3.20;;;;;;;17.88;71.29;100632.53;5086104;28;20032;-63
2022/06/08 07:28:22;;;;;;;4.88;3.00;;;;;;;17.89;71.20;100628.56;5090020;28;20035;-63
2022/06/08 07:30:47;;;;;;;6.38;3.40;;;;;;;17.93;70.56;100630.75;5080732;28;20392;-64
2022/06/08 07:33:13;;;;;;;5.53;2.95;;;;;;;17.94;69.99;100626.81;5080687;28;20035;-64
2022/06/08 07:35:38;;;;;;;7.18;3.47;;;;;;;17.95;70.46;100628.47;5099156;28;20035;-64
2022/06/08 07:38:04;;;;;;;8.55;3.38;;;;;;;17.98;71.20;100622.25;5109048;28;20015;-64
2022/06/08 07:40:29;;;;;;;5.10;2.95;;;;;;;18.09;71.44;100629.34;5092010;28;20032;-66
2022/06/08 07:42:55;;;;;;;9.02;3.35;;;;;;;18.07;70.27;100626.00;5103635;28;20012;-64
2022/06/08 07:45:20;;;;;;;5.78;3.38;;;;;;;18.07;69.56;100626.00;5100798;28;20785;-64
2022/06/08 07:50:30;;;;;;;9.27;3.50;;;;;;;18.14;69.53;100629.25;5084749;28;20177;-65
2022/06/08 07:52:55;;;;;;;7.85;2.95;;;;;;;18.19;69.82;100629.13;5090996;28;20107;-63
2022/06/08 07:55:21;;;;;;;5.90;3.10;;;;;;;18.17;69.22;100630.59;5100485;28;20028;-64
2022/06/08 07:57:47;;;;;;;7.97;3.00;;;;;;;18.23;69.89;100629.34;5094881;28;20592;-64
2022/06/08 08:00:17;;;;;;;8.32;2.75;;;;;;;18.26;69.80;100635.19;5090250;28;20832;-65
2022/06/08 08:02:42;;;;;;;6.90;2.85;;;;;;;18.28;69.11;100638.53;5090706;28;20096;-64
2022/06/08 08:05:11;;;;;;;11.77;3.05;;;;;;;18.19;69.31;100636.72;5094271;28;20134;-64
2022/06/08 08:07:37;;;;;;;6.38;2.58;;;;;;;18.20;69.00;100630.81;5091446;28;20036;-64
2022/06/08 08:10:06;;;;;;;7.93;2.85;;;;;;;18.19;69.23;100634.75;5090383;28;20073;-65
2022/06/08 08:12:31;;;;;;;8.25;3.03;;;;;;;18.13;69.39;100628.41;5090510;28;20027;-64
2022/06/08 08:14:56;;;;;;;7.28;2.88;;;;;;;18.13;68.60;100630.38;5091886;28;20027;-65
2022/06/08 08:17:22;;;;;;;5.88;3.00;;;;;;;18.08;68.85;100634.13;5089609;28;20389;-65
2022/06/08 08:19:47;;;;;;;9.75;3.05;;;;;;;18.10;68.97;100631.84;5096929;28;20077;-65
2022/06/08 08:22:15;;;;;;;7.18;2.85;;;;;;;18.11;68.93;100629.84;5092425;28;20050;-65
2022/06/08 08:24:40;;;;;;;5.32;2.55;;;;;;;18.17;69.11;100631.44;5088518;28;20035;-65
2022/06/08 08:27:06;;;;;;;10.38;3.33;;;;;;;18.13;69.03;100630.38;5093196;28;20608;-65
2022/06/08 08:29:36;;;;;;;6.63;3.03;;;;;;;18.06;68.57;100635.56;5088933;28;20493;-65
2022/06/08 08:32:02;;;;;;;11.18;3.72;;;;;;;18.00;68.85;100637.66;5089347;28;20032;-65
2022/06/08 08:34:27;;;;;;;9.60;3.63;;;;;;;17.97;69.02;100631.81;5094396;28;20031;-65
2022/06/08 08:36:53;;;;;;;7.32;2.92;;;;;;;17.96;69.78;100636.59;5106533;28;20052;-63
2022/06/08 08:39:24;;;;;;;8.43;3.78;;;;;;;17.97;68.82;100637.44;5103011;28;20040;-63
2022/06/08 08:44:51;;;;;;;5.13;3.10;;;;;;;17.93;68.97;100631.59;5091553;28;20067;-65
2022/06/08 08:48:03;;;;;;;6.43;3.20;;;;;;;17.95;68.98;100634.91;5093156;28;20047;-65
2022/06/08 08:50:48;;;;;;;7.20;2.67;;;;;;;17.93;69.58;100636.38;5094710;28;20035;-65
2022/06/08 08:53:29;;;;;;;6.93;3.42;;;;;;;17.94;69.07;100626.81;5103541;28;20550;-65
2022/06/08 08:56:10;;;;;;;8.20;3.72;;;;;;;17.86;69.65;100634.78;5093317;28;20115;-65
2022/06/08 08:58:38;;;;;;;7.68;3.03;;;;;;;17.85;69.27;100630.31;5101234;28;20036;-65
2022/06/08 09:01:34;;;;;;;9.80;3.45;;;;;;;17.90;69.56;100635.84;5104321;28;20674;-66
2022/06/08 09:04:09;;;;;;;8.98;3.45;;;;;;;17.91;69.63;100629.06;5091190;28;20046;-65
2022/06/08 09:06:35;;;;;;;6.70;2.97;;;;;;;17.96;69.05;100627.31;5102079;28;20768;-65
2022/06/08 09:09:09;;;;;;;7.13;2.50;;;;;;;17.98;69.36;100627.84;5091028;28;20035;-65
2022/06/08 09:11:42;;;;;;;9.48;3.63;;;;;;;17.92;68.58;100629.94;5095027;28;20054;-65
2022/06/08 09:14:15;;;;;;;7.10;2.72;;;;;;;17.93;68.96;100627.97;5096048;28;20030;-64
2022/06/08 09:16:51;;;;;;;7.80;2.78;;;;;;;17.95;69.06;100631.28;5084567;28;20023;-66
2022/06/08 09:19:37;;;;;;;7.00;2.80;;;;;;;18.01;69.37;100639.31;5082962;28;20024;-64
2022/06/08 09:22:08;;;;;;;7.00;3.08;;;;;;;18.01;70.06;100642.13;5083449;28;20528;-64
2022/06/08 09:24:38;;;;;;;8.10;3.45;;;;;;;17.95;69.72;100634.09;5096654;28;20080;-65
2022/06/08 09:27:39;;;;;;;7.70;3.30;;;;;;;17.96;69.94;100630.13;5100543;28;20077;-65
2022/06/08 09:30:07;;;;;;;9.00;3.78;;;;;;;17.95;70.25;100631.28;5088316;28;20470;-64
2022/06/08 09:32:59;;;;;;;5.57;3.13;;;;;;;17.98;70.85;100631.50;5086101;28;20026;-65
2022/06/08 09:35:37;;;;;;;8.90;3.25;;;;;;;17.94;70.47;100643.66;5099135;28;20028;-64
2022/06/08 09:38:11;;;;;;;8.63;3.50;;;;;;;17.93;71.03;100636.38;5085509;28;20048;-64
2022/06/08 09:40:54;;;;;;;6.65;2.78;;;;;;;17.90;71.44;100633.03;5086848;28;20036;-64
2022/06/08 09:43:53;;;;;;;11.50;3.55;;;;;;;17.94;71.10;100638.03;5096286;28;20071;-64
2022/06/08 09:52:52;;;;;;;8.82;3.25;;;;;;;17.94;71.37;100644.47;5100620;28;20043;-65
2022/06/08 09:55:44;;;;;;;9.57;3.15;;;;;;;17.83;72.35;100649.44;5071265;28;20021;-65
2022/06/08 09:58:32;;;;;;;9.90;2.97;;;;;;;17.87;72.24;100650.50;5087173;28;20459;-65
2022/06/08 10:01:08;;;;;;;7.40;2.80;;;;;;;17.83;72.22;100646.63;5096014;28;20047;-63
2022/06/08 10:03:37;;;;;;;9.80;2.80;;;;;;;17.82;72.02;100653.38;5097486;28;20058;-64
2022/06/08 10:06:14;;;;;;;11.20;2.70;;;;;;;17.78;72.11;100652.34;5097754;28;20417;-65
2022/06/08 10:08:57;;;;;;;10.27;3.30;;;;;;;17.80;72.28;100637.97;5096029;28;20032;-65
2022/06/08 10:11:47;;;;;;;11.20;3.25;;;;;;;17.78;72.28;100646.72;5093878;28;20135;-64
2022/06/08 10:14:21;;;;;;;8.65;2.80;;;;;;;17.76;72.85;100634.13;5089798;28;20039;-64
2022/06/08 10:16:59;;;;;;;8.98;3.17;;;;;;;17.75;73.16;100643.69;5081450;28;20159;-64
2022/06/08 10:19:54;;;;;;;10.88;3.53;;;;;;;17.70;73.00;100644.59;5085753;28;20076;-64
2022/06/08 10:22:19;;;;;;;10.63;3.45;;;;;;;17.68;73.67;100644.03;5085030;28;20375;-64
2022/06/08 10:25:38;;;;;;;8.63;3.35;;;;;;;17.70;73.61;100647.41;5094108;28;20039;-64
2022/06/08 10:28:15;;;;;;;8.93;3.40;;;;;;;17.65;74.05;100641.88;5048492;28;20041;-65
2022/06/08 10:30:51;;;;;;;9.80;3.33;;;;;;;17.67;73.81;100645.19;5088909;28;20086;-63
2022/06/08 10:33:27;;;;;;;7.40;2.92;;;;;;;17.64;73.98;100643.00;5077463;28;20079;-64
2022/06/08 10:35:55;;;;;;;8.80;3.45;;;;;;;17.63;74.98;100649.75;5105592;28;20039;-62
2022/06/08 10:38:27;;;;;;;8.32;3.03;;;;;;;17.60;74.13;100650.34;5086930;28;20028;-63
2022/06/08 10:41:02;;;;;;;7.95;3.40;;;;;;;17.55;73.84;100642.03;5081862;28;20107;-62
2022/06/08 10:43:31;;;;;;;8.48;3.13;;;;;;;17.49;74.14;100641.28;5080704;28;20067;-64
2022/06/08 10:46:21;;;;;;;13.82;4.05;;;;;;;17.48;74.36;100644.38;5086956;28;20032;-65
2022/06/08 10:48:49;;;;;;;11.93;4.05;;;;;;;17.45;74.86;100642.16;5085110;28;20081;-65
2022/06/08 10:51:14;;;;;;;8.50;3.53;;;;;;;17.42;74.34;100632.41;5087332;28;20039;-67
2022/06/08 10:56:33;;;;;;;9.65;3.47;;;;;;;17.41;74.79;100631.59;5081072;28;20096;-67
2022/06/08 10:59:07;;;;;;;8.98;3.40;;;;;;;17.41;74.41;100637.19;5099163;28;20032;-67
2022/06/08 11:02:03;;;;;;;6.97;2.95;;;;;;;17.40;74.72;100634.66;5105018;28;21252;-62
2022/06/08 11:04:35;;;;;;;8.27;2.83;;;;;;;17.41;74.13;100636.38;5087383;28;20052;-65
2022/06/08 11:07:11;;;;;;;7.47;2.55;;;;;;;17.39;73.01;100630.22;5089981;28;20055;-64
2022/06/08 11:09:36;;;;;;;6.70;2.47;;;;;;;17.25;72.48;100623.69;5083701;28;20075;-63
2022/06/08 11:12:10;;;;;;;6.68;2.42;;;;;;;17.28;73.74;100626.72;5090010;28;20057;-67
2022/06/08 11:14:57;;;;;;;10.50;2.75;;;;;;;17.25;73.60;100613.31;5099425;28;20096;-67
2022/06/08 11:17:48;;;;;;;10.48;2.50;;;;;;;17.21;73.25;100614.22;5088023;28;20031;-67
2022/06/08 11:20:18;;;;;;;5.97;2.50;;;;;;;17.25;73.69;100616.13;5092596;28;20037;-65
2022/06/08 11:23:10;;;;;;;9.02;2.85;;;;;;;17.26;73.77;100612.19;5088687;28;20060;-67
2022/06/08 11:25:58;;;;;;;7.20;2.78;;;;;;;17.28;73.78;100609.06;5086044;28;20073;-65
2022/06/08 11:28:43;;;;;;;6.85;2.60;;;;;;;17.26;73.80;100600.97;5096913;28;20051;-62
2022/06/08 11:31:29;;;;;;;5.50;2.33;;;;;;;17.26;73.29;100600.97;5075362;28;20041;-62
2022/06/08 11:34:19;;;;;;;9.13;2.55;;;;;;;17.24;73.14;100594.81;5081836;28;20034;-64
2022/06/08 11:37:01;;;;;;;8.57;3.38;;;;;;;17.19;73.67;100597.69;5097323;28;20032;-66
2022/06/08 11:39:45;;;;;;;8.60;3.10;;;;;;;17.13;74.49;100588.53;5092821;28;20051;-63
2022/06/08 11:42:27;;;;;;;7.13;2.90;;;;;;;17.16;73.97;100587.91;5096262;28;20040;-64
2022/06/08 11:45:18;;;;;;;7.03;2.47;;;;;;;17.10;74.46;100582.69;5092642;28;20100;-62
2022/06/08 11:48:09;;;;;;;10.88;3.08;;;;;;;17.13;74.04;100579.25;5089225;28;20723;-63
2022/06/08 11:50:43;;;;;;;5.25;2.60;;;;;;;17.11;75.10;100573.13;5089131;28;20279;-63
2022/06/08 11:53:21;;;;;;;8.57;2.85;;;;;;;17.10;73.96;100577.09;5086441;28;20043;-64
2022/06/08 11:56:10;;;;;;;7.97;2.65;;;;;;;17.09;73.48;100579.03;5085074;28;20063;-63
2022/06/08 11:58:36;;;;;;;5.10;2.10;;;;;;;17.04;73.56;100572.69;5071833;28;20577;-62